Du har inga inställningar för hoppväder.nu

Hoppväder.nu

Senast uppdaterat 02:15

UTC-tid

2018-01-17 kl. 01:15


Sol och måne

Solen går upp 8:47 och går ner 15:19 (beräknade cirkatider)
Nästa fullmåne blir om 14 dagar (2018-01-31)


Väderstation: Skydive Mohed - Moheds Flygplats, Söderhamn

Väderrapport från: 2018-01-17 02:15
Vindriktning: 79°
Vindstyrka: 1 m/s
Byvind: 2 m/s
Lufttryck: 1037,8 hPa
Temperatur: 10,2°C
Daggpunkt: 8,8°C
Luftfuktighet: 91%
Sikt: km




METAR

ESSD (Borlänge)
(25 minuter sedan)
ESSD 170050Z AUTO 12010KT 4500 BR OVC005/// M01/M01 Q0985=



ESNN (Sundsvall-Härnösand)
(25 minuter sedan)
ESNN 170050Z 13019KT 4900 -SN BKN009 BKN015 OVC019 M01/M02 Q0991=












TAF

ESSD (Borlänge)
(315 minuter sedan)
ESSD 162000Z NIL=



ESNN (Sundsvall-Härnösand)
(105 minuter sedan)
ESNN 162330Z 1700/1702 14022KT 7000 -RASN OVC015 TEMPO 1700/1702 13022G32KT 1200 -SN BKN009=





Kodnycklar till TAF och METAR






LHP

(Mohed är område D2b i Sydöstra delen)

Prognos är inte uppdaterad
ÖVERSIKTLIG PROGNOS FÖR OMRÅDE C UTFÄRDAD 161550
GÄLLANDE DEN 17 JANUARI 2018 MELLAN 05 OCH 17 UTC


Väderöversikt
Ett utbrett snöfallsområde berör Norrland under dagen FJÄLLEN: I hela fjällkedjan förekommer snöfall, snödrev och en frisk till hård ostlig vind, Lapplandsfjällen något svagare vind
SYDÖSTRA DELEN


Sikt/Väder/Moln
05-17UTC: I hela området: Sikt <1.5km i snöfall, lokalt 3km - 5km. Molnbas <500ft, lokalt 1500ft - 2000ft.

CB/TCU Moln
05-17UTC: I hela området: Väntas inte förekomma under perioden

Vind vid marken
05-09UTC: Område D2a: SO/7-28 knop, byar upp till 42 knop.
Område D1c: SO/26-32 knop, byar upp till 44 knop.
Område D1a: SO/13-32 knop, byar upp till 43 knop.
Område D2b: SO/9-26 knop, byar upp till 36 knop.
Område D1b: SO/12-32 knop, byar upp till 43 knop.

09-13UTC: Område D1b: O-SO/11-27 knop, byar upp till 37 knop.
Område D1c: O-SO/24-28 knop.
Område D2b: O-SO/8-25 knop, byar upp till 34 knop.
Område D1a: O-SO/14-26 knop, byar upp till 36 knop.
Område D2a: O-SO/11-22 knop, byar upp till 33 knop.

13-17UTC: Område D2b: O-SO/6-24 knop, byar upp till 31 knop.
Område D1a: O-SO/12-24 knop, byar upp till 32 knop.
Område D2a: O-SO/8-20 knop, byar upp till 28 knop.
Område D1c: O-SO/22-25 knop.
Område D1b: O-SO/12-25 knop, byar upp till 33 knop.





Spotting

Hur fungerar spotthjälpen och Vindkartan?

Markvind är ca 0 m/s.



Vindkartan

Senast uppdaterad 02:15

All data kommer från LFV.se,
från SÖFKs väderstation Weather underground